createdAt,value
2023-01-17T00:02:01.030Z,27.67
2023-01-17T00:04:47.002Z,27.76
2023-01-17T00:07:36.388Z,27.49
2023-01-17T00:10:07.402Z,27.48
2023-01-17T00:12:35.196Z,27.63
2023-01-17T00:15:02.356Z,27.74
2023-01-17T00:17:30.264Z,27.53
2023-01-17T00:20:15.758Z,27.58
2023-01-17T00:23:02.946Z,27.69
2023-01-17T00:25:52.691Z,27.45
2023-01-17T00:28:19.935Z,27.76
2023-01-17T00:30:47.091Z,27.60
2023-01-17T00:33:14.060Z,27.55
2023-01-17T00:35:40.950Z,27.68
2023-01-17T00:38:10.822Z,27.76
2023-01-17T00:40:39.518Z,27.70
2023-01-17T00:43:26.896Z,27.53
2023-01-17T00:46:13.100Z,27.58
2023-01-17T00:48:58.630Z,27.42
2023-01-17T00:51:45.321Z,27.74
2023-01-17T00:54:33.041Z,27.92
2023-01-17T00:57:18.659Z,27.76
2023-01-17T01:00:04.602Z,27.69
2023-01-17T01:02:51.129Z,27.58
2023-01-17T01:05:37.111Z,27.96
2023-01-17T01:08:22.852Z,27.74
2023-01-17T01:11:09.913Z,27.69
2023-01-17T01:13:55.223Z,27.76
2023-01-17T01:16:40.413Z,27.58
2023-01-17T01:19:25.740Z,27.81
2023-01-17T01:22:11.192Z,27.72
2023-01-17T01:24:56.485Z,27.69
2023-01-17T01:27:43.707Z,27.79
2023-01-17T01:30:30.185Z,27.77
2023-01-17T01:33:15.484Z,27.63
2023-01-17T01:35:43.107Z,27.70
2023-01-17T01:38:10.027Z,27.72
2023-01-17T01:40:42.615Z,27.75
2023-01-17T01:43:13.270Z,27.62
2023-01-17T01:45:40.681Z,27.74
2023-01-17T01:48:23.687Z,27.50
2023-01-17T01:50:51.102Z,27.50
2023-01-17T01:53:20.216Z,27.65
2023-01-17T01:55:49.567Z,27.78
2023-01-17T01:58:22.181Z,27.56
2023-01-17T02:00:49.537Z,27.51
2023-01-17T02:03:20.206Z,27.72
2023-01-17T02:05:47.499Z,27.64
2023-01-17T02:08:17.462Z,27.65
2023-01-17T02:10:44.352Z,27.46
2023-01-17T02:13:13.184Z,27.65
2023-01-17T02:15:51.727Z,27.51
2023-01-17T02:18:30.882Z,27.54
2023-01-17T02:21:12.697Z,27.71
2023-01-17T02:24:22.894Z,27.82
2023-01-17T02:26:58.675Z,27.75
2023-01-17T02:30:18.861Z,27.70
2023-01-17T02:32:55.875Z,27.67
2023-01-17T02:35:30.839Z,27.73
2023-01-17T02:38:08.567Z,27.76
2023-01-17T02:40:41.462Z,27.72
2023-01-17T02:43:12.069Z,27.74
2023-01-17T02:45:39.050Z,27.72
2023-01-17T02:48:10.924Z,27.77
2023-01-17T02:50:53.055Z,27.67
2023-01-17T02:53:42.353Z,27.72
2023-01-17T02:56:24.266Z,27.64
2023-01-17T02:59:06.493Z,27.92
2023-01-17T03:01:40.976Z,27.59
2023-01-17T03:04:15.138Z,27.58
2023-01-17T03:06:47.132Z,27.74
2023-01-17T03:09:16.098Z,27.81
2023-01-17T03:11:43.456Z,27.58
2023-01-17T03:14:10.319Z,27.83
2023-01-17T03:16:37.362Z,27.76
2023-01-17T03:19:04.548Z,27.66
2023-01-17T03:21:32.878Z,27.83
2023-01-17T03:23:59.784Z,28.00
2023-01-17T03:26:26.740Z,27.73
2023-01-17T03:28:53.716Z,27.65
2023-01-17T03:31:20.608Z,27.81
2023-01-17T03:33:47.548Z,27.74
2023-01-17T03:36:14.741Z,27.88
2023-01-17T03:38:43.042Z,27.88
2023-01-17T03:41:09.984Z,27.74
2023-01-17T03:43:36.870Z,27.67
2023-01-17T03:46:04.875Z,27.82
2023-01-17T03:48:31.891Z,27.70
2023-01-17T03:50:59.299Z,27.66
2023-01-17T03:53:26.587Z,27.71
2023-01-17T03:55:54.800Z,27.68
2023-01-17T03:58:21.767Z,27.78
2023-01-17T04:00:48.784Z,27.77
2023-01-17T04:03:15.722Z,27.75
2023-01-17T04:05:42.662Z,27.63
2023-01-17T04:08:09.621Z,27.71
2023-01-17T04:10:36.468Z,27.51
2023-01-17T04:13:04.865Z,27.71
2023-01-17T04:15:32.798Z,27.75
2023-01-17T04:17:59.785Z,27.64
2023-01-17T04:20:32.006Z,27.50
2023-01-17T04:22:59.133Z,27.77
2023-01-17T04:25:26.155Z,27.96
2023-01-17T04:27:53.209Z,27.43
2023-01-17T04:30:21.777Z,27.70
2023-01-17T04:32:48.749Z,27.69
2023-01-17T04:35:15.659Z,27.60
2023-01-17T04:37:42.855Z,27.68
2023-01-17T04:40:11.406Z,27.69
2023-01-17T04:42:38.542Z,27.64
2023-01-17T04:45:06.777Z,27.53
2023-01-17T04:47:35.036Z,27.77
2023-01-17T04:50:01.957Z,27.52
2023-01-17T04:52:28.860Z,27.64
2023-01-17T04:54:55.777Z,27.61
2023-01-17T04:57:22.650Z,27.63
2023-01-17T04:59:49.544Z,27.72
2023-01-17T05:02:16.640Z,27.66
2023-01-17T05:04:45.014Z,27.58
2023-01-17T05:07:11.879Z,27.67
2023-01-17T05:09:38.955Z,27.70
2023-01-17T05:12:06.006Z,27.80
2023-01-17T05:14:34.391Z,27.73
2023-01-17T05:17:03.128Z,27.70
2023-01-17T05:19:30.125Z,27.30
2023-01-17T05:22:04.029Z,27.67
2023-01-17T05:24:31.668Z,27.39
2023-01-17T05:27:03.023Z,27.65
2023-01-17T05:29:30.491Z,27.73
2023-01-17T05:31:57.588Z,27.79
2023-01-17T05:34:24.795Z,27.69
2023-01-17T05:36:51.731Z,27.63
2023-01-17T05:39:20.015Z,27.66
2023-01-17T05:41:46.918Z,27.57
2023-01-17T05:44:15.341Z,27.56
2023-01-17T05:46:42.452Z,27.92
2023-01-17T05:49:09.453Z,27.73
2023-01-17T05:51:37.955Z,27.81
2023-01-17T05:54:05.287Z,27.72
2023-01-17T05:56:33.931Z,27.80
2023-01-17T05:59:00.874Z,27.74
2023-01-17T06:01:27.837Z,27.82
2023-01-17T06:03:54.804Z,27.74
2023-01-17T06:06:21.953Z,27.70
2023-01-17T06:08:48.893Z,27.64
2023-01-17T06:11:15.936Z,27.55
2023-01-17T06:13:44.184Z,27.47
2023-01-17T06:16:11.243Z,27.62
2023-01-17T06:18:38.243Z,27.56
2023-01-17T06:21:05.392Z,27.43
2023-01-17T06:23:32.390Z,27.43
2023-01-17T06:26:03.549Z,27.24
2023-01-17T06:28:30.591Z,27.33
2023-01-17T06:30:59.991Z,27.22
2023-01-17T06:33:27.066Z,27.63
2023-01-17T06:35:54.116Z,27.19
2023-01-17T06:38:21.326Z,27.15
2023-01-17T06:40:48.581Z,27.26
2023-01-17T06:43:15.888Z,27.07
2023-01-17T06:45:42.794Z,26.91
2023-01-17T06:48:11.253Z,27.00
2023-01-17T06:50:38.237Z,26.93
2023-01-17T06:53:06.806Z,27.29
2023-01-17T06:55:35.484Z,27.10
2023-01-17T06:58:03.343Z,27.03
2023-01-17T07:00:31.532Z,27.00
2023-01-17T07:02:58.550Z,26.97
2023-01-17T07:05:28.498Z,27.14
2023-01-17T07:07:55.693Z,26.67
2023-01-17T07:10:23.639Z,27.02
2023-01-17T07:12:51.467Z,26.97
2023-01-17T07:15:18.527Z,26.68
2023-01-17T07:17:45.735Z,26.72
2023-01-17T07:20:13.599Z,26.72
2023-01-17T07:22:45.099Z,26.46
2023-01-17T07:25:12.049Z,26.61
2023-01-17T07:27:38.894Z,26.58
2023-01-17T07:30:07.026Z,26.38
2023-01-17T07:32:33.889Z,26.77
2023-01-17T07:35:00.842Z,26.70
2023-01-17T07:37:27.702Z,26.47
2023-01-17T07:39:56.176Z,26.44
2023-01-17T07:42:24.395Z,26.74
2023-01-17T07:44:51.458Z,26.42
2023-01-17T07:47:18.394Z,26.54
2023-01-17T07:49:45.386Z,26.57
2023-01-17T07:52:12.356Z,26.59
2023-01-17T07:54:39.312Z,26.93
2023-01-17T07:57:11.848Z,26.62
2023-01-17T07:59:38.777Z,26.78
2023-01-17T08:02:06.079Z,26.73
2023-01-17T08:04:35.264Z,26.55
2023-01-17T08:07:02.494Z,26.61
2023-01-17T08:09:29.553Z,26.96
2023-01-17T08:11:56.593Z,26.95
2023-01-17T08:14:25.249Z,26.64
2023-01-17T08:16:52.291Z,26.78
2023-01-17T08:19:19.254Z,26.73
2023-01-17T08:21:46.266Z,26.79
2023-01-17T08:24:13.832Z,27.02
2023-01-17T08:26:40.862Z,26.96
2023-01-17T08:29:07.986Z,27.19
2023-01-17T08:31:36.737Z,26.93
2023-01-17T08:34:03.944Z,27.29
2023-01-17T08:36:31.333Z,27.02
2023-01-17T08:38:59.024Z,27.18
2023-01-17T08:41:27.864Z,27.16
2023-01-17T08:43:54.855Z,27.08
2023-01-17T08:46:22.506Z,27.22
2023-01-17T08:48:53.884Z,27.07
2023-01-17T08:51:20.666Z,27.25
2023-01-17T08:53:48.609Z,27.36
2023-01-17T08:56:15.617Z,27.24
2023-01-17T08:58:42.546Z,27.41
2023-01-17T09:01:09.553Z,27.30
2023-01-17T09:03:38.351Z,27.23
2023-01-17T09:06:10.765Z,27.35
2023-01-17T09:08:37.919Z,27.42
2023-01-17T09:11:05.874Z,27.77
2023-01-17T09:13:32.910Z,27.44
2023-01-17T09:16:00.878Z,27.26
2023-01-17T09:18:29.422Z,27.56
2023-01-17T09:20:59.258Z,27.52
2023-01-17T09:23:29.792Z,27.35
2023-01-17T09:25:59.236Z,27.45
2023-01-17T09:28:27.157Z,27.49
2023-01-17T09:30:54.878Z,27.34
2023-01-17T09:33:24.425Z,27.50
2023-01-17T09:35:51.365Z,27.66
2023-01-17T09:38:18.303Z,27.55
2023-01-17T09:40:48.480Z,27.62
2023-01-17T09:43:21.681Z,27.63
2023-01-17T09:45:49.026Z,27.76
2023-01-17T09:48:23.597Z,27.71
2023-01-17T09:50:57.819Z,27.75
2023-01-17T09:53:24.845Z,27.53
2023-01-17T09:55:58.576Z,27.45
2023-01-17T09:58:34.999Z,27.82
2023-01-17T10:01:10.130Z,27.53
2023-01-17T10:03:43.827Z,27.19
2023-01-17T10:06:22.355Z,27.10
2023-01-17T10:09:03.903Z,27.48
2023-01-17T10:11:41.121Z,27.23
2023-01-17T10:14:29.276Z,27.08
2023-01-17T10:17:06.813Z,27.56
2023-01-17T10:19:53.479Z,27.40
2023-01-17T10:22:48.768Z,26.93
2023-01-17T10:25:28.344Z,27.43
2023-01-17T10:27:58.945Z,27.28
2023-01-17T10:30:33.663Z,26.92
2023-01-17T10:33:04.273Z,26.82
2023-01-17T10:35:36.956Z,26.79
2023-01-17T10:38:07.560Z,27.19
2023-01-17T10:40:42.804Z,26.84
2023-01-17T10:43:18.778Z,26.84
2023-01-17T10:45:51.940Z,27.29
2023-01-17T10:48:29.664Z,27.02
2023-01-17T10:51:01.694Z,27.32
2023-01-17T10:53:43.548Z,27.16
2023-01-17T10:56:14.214Z,27.06
2023-01-17T10:58:42.621Z,27.14
2023-01-17T11:01:17.814Z,27.10
2023-01-17T11:03:49.908Z,27.19
2023-01-17T11:06:21.985Z,26.87
2023-01-17T11:08:54.284Z,26.58
2023-01-17T11:11:24.153Z,26.89
2023-01-17T11:13:54.879Z,27.11
2023-01-17T11:16:26.724Z,26.50
2023-01-17T11:19:08.965Z,26.57
2023-01-17T11:21:39.448Z,26.63
2023-01-17T11:24:11.751Z,26.89
2023-01-17T11:26:47.306Z,26.57
2023-01-17T11:29:25.670Z,26.46
2023-01-17T11:31:52.845Z,26.44
2023-01-17T11:34:24.066Z,26.89
2023-01-17T11:37:08.692Z,26.95
2023-01-17T11:39:35.672Z,26.41
2023-01-17T11:42:06.251Z,26.60
2023-01-17T11:44:36.069Z,26.69
2023-01-17T11:47:17.020Z,26.89
2023-01-17T11:49:45.706Z,27.00
2023-01-17T11:52:22.204Z,26.64
2023-01-17T11:54:50.855Z,26.68
2023-01-17T11:57:22.765Z,26.63
2023-01-17T11:59:55.910Z,26.55
2023-01-17T12:02:41.118Z,26.50
2023-01-17T12:05:31.545Z,26.40
2023-01-17T12:08:09.454Z,26.49
2023-01-17T12:10:47.893Z,26.87
2023-01-17T12:13:42.632Z,26.81
2023-01-17T12:16:31.167Z,26.83
2023-01-17T12:19:12.885Z,26.55
2023-01-17T12:21:51.519Z,26.83
2023-01-17T12:24:44.579Z,26.60
2023-01-17T12:27:19.418Z,26.68
2023-01-17T12:30:03.218Z,26.99
2023-01-17T12:32:48.889Z,27.07
2023-01-17T12:35:20.103Z,27.08
2023-01-17T12:38:03.859Z,26.73
2023-01-17T12:40:35.538Z,26.58
2023-01-17T12:43:12.407Z,26.42
2023-01-17T12:45:43.797Z,26.53
2023-01-17T12:48:12.767Z,26.66
2023-01-17T12:50:43.700Z,26.45
2023-01-17T12:53:19.659Z,26.81
2023-01-17T12:55:53.159Z,26.68
2023-01-17T12:58:26.489Z,27.00
2023-01-17T13:01:00.532Z,26.87
2023-01-17T13:03:40.444Z,27.01
2023-01-17T13:06:07.758Z,26.76
2023-01-17T13:08:41.369Z,26.95
2023-01-17T13:11:17.232Z,26.69
2023-01-17T13:13:44.135Z,26.83
2023-01-17T13:16:14.635Z,26.86
2023-01-17T13:18:46.310Z,27.06
2023-01-17T13:21:30.143Z,26.67
2023-01-17T13:24:32.801Z,26.79
2023-01-17T13:27:22.536Z,26.82
2023-01-17T13:30:01.771Z,26.49
2023-01-17T13:32:55.223Z,27.05
2023-01-17T13:35:42.029Z,26.75
2023-01-17T13:38:21.460Z,26.74
2023-01-17T13:40:54.155Z,26.54
2023-01-17T13:43:25.881Z,26.44
2023-01-17T13:45:54.962Z,26.51
2023-01-17T13:48:31.226Z,26.65
2023-01-17T13:51:02.282Z,26.58
2023-01-17T13:53:56.882Z,26.61
2023-01-17T13:56:29.787Z,26.73
2023-01-17T13:59:02.562Z,26.53
2023-01-17T14:01:54.757Z,27.02
2023-01-17T14:04:23.466Z,26.94
2023-01-17T14:06:57.897Z,27.06
2023-01-17T14:09:36.615Z,26.73
2023-01-17T14:12:25.414Z,26.62
2023-01-17T14:14:56.661Z,26.73
2023-01-17T14:17:48.336Z,26.67
2023-01-17T14:20:48.611Z,26.88
2023-01-17T14:23:26.235Z,26.58
2023-01-17T14:25:53.615Z,26.93
2023-01-17T14:28:24.130Z,27.02
2023-01-17T14:30:56.046Z,26.62
2023-01-17T14:33:28.879Z,26.53
2023-01-17T14:35:58.026Z,26.96
2023-01-17T14:38:28.211Z,26.96
2023-01-17T14:40:57.109Z,26.68
2023-01-17T14:43:26.545Z,26.54
2023-01-17T14:45:59.004Z,26.93
2023-01-17T14:48:26.650Z,27.06
2023-01-17T14:50:55.064Z,26.52
2023-01-17T14:53:26.042Z,26.48
2023-01-17T14:55:59.981Z,26.37
2023-01-17T14:58:29.178Z,26.53
2023-01-17T15:01:00.022Z,26.90
2023-01-17T15:03:27.948Z,26.99
2023-01-17T15:05:57.638Z,26.88
2023-01-17T15:08:30.849Z,26.97
2023-01-17T15:11:05.243Z,26.87
2023-01-17T15:13:43.890Z,26.50
2023-01-17T15:16:19.121Z,26.52
2023-01-17T15:18:46.423Z,26.39
2023-01-17T15:21:17.310Z,26.49
2023-01-17T15:23:47.507Z,26.57
2023-01-17T15:26:18.499Z,26.37
2023-01-17T15:28:46.031Z,26.58
2023-01-17T15:31:15.515Z,26.84
2023-01-17T15:33:45.637Z,26.97
2023-01-17T15:36:33.154Z,26.70
2023-01-17T15:39:01.664Z,26.97
2023-01-17T15:41:32.489Z,26.60
2023-01-17T15:43:59.757Z,26.78
2023-01-17T15:46:32.427Z,26.41
2023-01-17T15:49:07.610Z,26.95
2023-01-17T15:51:37.823Z,26.48
2023-01-17T15:54:24.093Z,26.47
2023-01-17T15:57:06.273Z,26.78
2023-01-17T15:59:51.193Z,26.43
2023-01-17T16:02:31.255Z,26.79
2023-01-17T16:04:58.998Z,27.07
2023-01-17T16:07:34.071Z,26.62
2023-01-17T16:10:13.742Z,26.94
2023-01-17T16:12:42.850Z,26.41
2023-01-17T16:15:13.275Z,26.67
2023-01-17T16:17:42.352Z,26.39
2023-01-17T16:20:15.946Z,26.31
2023-01-17T16:22:43.779Z,26.64
2023-01-17T16:25:15.677Z,26.89
2023-01-17T16:27:44.642Z,26.79
2023-01-17T16:30:17.110Z,26.84
2023-01-17T16:32:56.555Z,26.89
2023-01-17T16:35:26.255Z,26.31
2023-01-17T16:37:54.829Z,26.96
2023-01-17T16:40:23.576Z,26.60
2023-01-17T16:42:52.059Z,26.48
2023-01-17T16:45:19.183Z,26.42
2023-01-17T16:47:47.689Z,26.29
2023-01-17T16:50:16.622Z,26.54
2023-01-17T16:52:43.497Z,26.19
2023-01-17T16:55:13.865Z,26.51
2023-01-17T16:57:41.821Z,26.30
2023-01-17T17:00:12.530Z,26.81
2023-01-17T17:02:40.757Z,26.36
2023-01-17T17:05:09.504Z,26.79
2023-01-17T17:07:42.675Z,26.50
2023-01-17T17:10:10.745Z,26.25
2023-01-17T17:12:37.652Z,26.34
2023-01-17T17:15:05.495Z,26.35
2023-01-17T17:17:36.130Z,26.15
2023-01-17T17:20:03.276Z,26.89
2023-01-17T17:22:30.142Z,26.14
2023-01-17T17:24:57.129Z,26.32
2023-01-17T17:27:26.544Z,26.37
2023-01-17T17:29:53.437Z,26.76
2023-01-17T17:32:21.110Z,26.45
2023-01-17T17:34:52.465Z,26.47
2023-01-17T17:37:19.178Z,26.44
2023-01-17T17:39:46.080Z,26.61
2023-01-17T17:42:13.206Z,26.49
2023-01-17T17:44:40.094Z,26.76
2023-01-17T17:47:07.002Z,26.09
2023-01-17T17:49:33.932Z,26.25
2023-01-17T17:52:05.523Z,26.35
2023-01-17T17:54:32.714Z,26.74
2023-01-17T17:56:59.936Z,26.07
2023-01-17T17:59:27.153Z,26.34
2023-01-17T18:01:54.092Z,26.15
2023-01-17T18:04:22.042Z,26.33
2023-01-17T18:06:49.003Z,26.60
2023-01-17T18:09:17.728Z,26.38
2023-01-17T18:11:44.797Z,26.79
2023-01-17T18:14:14.143Z,26.23
2023-01-17T18:16:43.080Z,26.23
2023-01-17T18:19:14.487Z,26.69
2023-01-17T18:21:41.268Z,26.25
2023-01-17T18:24:11.037Z,26.10
2023-01-17T18:26:40.777Z,26.11
2023-01-17T18:29:10.477Z,26.64
2023-01-17T18:31:37.545Z,26.57
2023-01-17T18:34:07.033Z,26.49
2023-01-17T18:36:34.896Z,26.22
2023-01-17T18:39:02.996Z,26.13
2023-01-17T18:41:31.299Z,26.71
2023-01-17T18:43:59.601Z,26.58
2023-01-17T18:46:26.886Z,26.48
2023-01-17T18:48:56.185Z,26.75
2023-01-17T18:51:23.305Z,26.07
2023-01-17T18:53:50.273Z,26.10
2023-01-17T18:56:20.148Z,26.57
2023-01-17T18:58:48.910Z,26.53
2023-01-17T19:01:19.220Z,26.25
2023-01-17T19:03:48.043Z,26.12
2023-01-17T19:06:17.351Z,26.19
2023-01-17T19:08:45.065Z,26.64
2023-01-17T19:11:12.431Z,26.46
2023-01-17T19:13:41.826Z,26.50
2023-01-17T19:16:13.148Z,26.25
2023-01-17T19:18:41.574Z,26.22
2023-01-17T19:21:10.944Z,26.27
2023-01-17T19:23:37.899Z,26.18
2023-01-17T19:26:08.359Z,26.32
2023-01-17T19:28:37.689Z,26.06
2023-01-17T19:31:06.239Z,26.19
2023-01-17T19:33:34.555Z,26.35
2023-01-17T19:36:05.817Z,26.51
2023-01-17T19:38:34.601Z,26.39
2023-01-17T19:41:07.465Z,26.00
2023-01-17T19:43:34.437Z,26.47
2023-01-17T19:46:01.405Z,26.34
2023-01-17T19:48:29.034Z,26.09
2023-01-17T19:50:56.385Z,26.61
2023-01-17T19:53:24.759Z,26.45
2023-01-17T19:55:51.667Z,26.23
2023-01-17T19:58:18.609Z,25.96
2023-01-17T20:00:46.690Z,26.58
2023-01-17T20:03:13.891Z,26.54
2023-01-17T20:05:40.780Z,26.25
2023-01-17T20:08:09.799Z,26.14
2023-01-17T20:10:38.049Z,26.55
2023-01-17T20:13:04.920Z,26.06
2023-01-17T20:15:31.858Z,26.37
2023-01-17T20:17:59.514Z,26.54
2023-01-17T20:20:26.539Z,26.03
2023-01-17T20:22:53.744Z,26.40
2023-01-17T20:25:20.694Z,26.20
2023-01-17T20:27:48.968Z,26.14
2023-01-17T20:30:20.549Z,26.47
2023-01-17T20:32:47.982Z,26.22
2023-01-17T20:35:16.042Z,26.50
2023-01-17T20:37:42.911Z,26.04
2023-01-17T20:40:12.224Z,26.25
2023-01-17T20:42:39.122Z,26.33
2023-01-17T20:45:08.987Z,26.42
2023-01-17T20:47:35.890Z,26.29
2023-01-17T20:50:04.031Z,26.08
2023-01-17T20:52:31.080Z,25.70
2023-01-17T20:54:57.998Z,25.71
2023-01-17T20:57:24.813Z,25.88
2023-01-17T20:59:52.374Z,25.75
2023-01-17T21:02:20.849Z,25.87
2023-01-17T21:04:47.793Z,26.14
2023-01-17T21:07:14.668Z,26.05
2023-01-17T21:09:42.917Z,26.26
2023-01-17T21:12:09.812Z,25.94
2023-01-17T21:14:37.637Z,26.16
2023-01-17T21:17:04.561Z,25.93
2023-01-17T21:19:32.851Z,26.06
2023-01-17T21:22:00.114Z,26.25
2023-01-17T21:24:28.693Z,26.45
2023-01-17T21:26:56.933Z,26.32
2023-01-17T21:29:29.224Z,26.39
2023-01-17T21:31:56.382Z,26.53
2023-01-17T21:34:25.367Z,26.13
2023-01-17T21:36:53.892Z,26.15
2023-01-17T21:39:20.794Z,26.24
2023-01-17T21:41:49.657Z,26.27
2023-01-17T21:44:19.702Z,26.28
2023-01-17T21:46:47.467Z,26.10
2023-01-17T21:49:14.729Z,26.39
2023-01-17T21:51:54.366Z,26.52
2023-01-17T21:54:44.779Z,26.18
2023-01-17T21:57:31.360Z,26.44
2023-01-17T21:59:58.356Z,26.37
2023-01-17T22:02:25.299Z,26.34
2023-01-17T22:04:54.496Z,26.30
2023-01-17T22:07:21.413Z,26.67
2023-01-17T22:09:49.883Z,26.40
2023-01-17T22:12:16.798Z,26.74
2023-01-17T22:14:43.672Z,26.46
2023-01-17T22:17:10.642Z,26.78
2023-01-17T22:19:37.551Z,26.57
2023-01-17T22:22:04.450Z,26.38
2023-01-17T22:24:31.389Z,26.53
2023-01-17T22:26:59.683Z,26.59
2023-01-17T22:29:26.993Z,26.76
2023-01-17T22:31:53.924Z,26.88
2023-01-17T22:34:20.890Z,26.70
2023-01-17T22:36:48.876Z,26.57
2023-01-17T22:39:15.839Z,26.66
2023-01-17T22:41:42.718Z,26.78
2023-01-17T22:44:11.276Z,26.82
2023-01-17T22:46:39.214Z,26.74
2023-01-17T22:49:08.431Z,26.74
2023-01-17T22:51:35.732Z,26.67
2023-01-17T22:54:02.801Z,26.80
2023-01-17T22:56:32.168Z,26.84
2023-01-17T22:59:00.816Z,26.77
2023-01-17T23:01:31.339Z,26.93
2023-01-17T23:04:00.622Z,26.87
2023-01-17T23:06:30.403Z,26.82
2023-01-17T23:09:00.171Z,26.83
2023-01-17T23:11:41.153Z,26.87
2023-01-17T23:14:11.642Z,26.94
2023-01-17T23:17:02.000Z,26.99
2023-01-17T23:19:32.374Z,26.85
2023-01-17T23:22:16.404Z,26.89
2023-01-17T23:24:45.415Z,26.89
2023-01-17T23:27:32.856Z,27.00
2023-01-17T23:29:59.982Z,27.01
2023-01-17T23:32:28.903Z,26.89
2023-01-17T23:34:55.896Z,26.92
2023-01-17T23:37:46.884Z,26.97
2023-01-17T23:40:14.073Z,26.84
2023-01-17T23:42:59.883Z,27.00
2023-01-17T23:45:27.188Z,26.91
2023-01-17T23:47:55.922Z,26.86
2023-01-17T23:50:22.965Z,27.11
2023-01-17T23:52:49.811Z,26.90
2023-01-17T23:55:16.907Z,27.08
2023-01-17T23:57:43.970Z,26.82
